sensor_id;sensor_type;location;lat;lon;timestamp;pressure;altitude;pressure_sealevel;temperature;humidity
25130;BME280;13308;50.860;13.664;2023-06-22T04:58:18;97165.78;;;19.28;100.00
25130;BME280;13308;50.860;13.664;2023-06-22T05:00:44;97174.94;;;19.46;100.00
25130;BME280;13308;50.860;13.664;2023-06-22T05:03:10;97193.56;;;19.58;100.00
25130;BME280;13308;50.860;13.664;2023-06-22T05:05:36;97191.53;;;19.68;100.00
25130;BME280;13308;50.860;13.664;2023-06-22T05:08:01;97202.09;;;19.82;100.00
25130;BME280;13308;50.860;13.664;2023-06-22T05:10:26;97208.28;;;19.86;100.00
25130;BME280;13308;50.860;13.664;2023-06-22T05:12:52;97210.50;;;19.82;100.00
25130;BME280;13308;50.860;13.664;2023-06-22T05:15:17;97212.97;;;19.89;100.00
25130;BME280;13308;50.860;13.664;2023-06-22T05:17:45;97212.97;;;19.89;100.00
25130;BME280;13308;50.860;13.664;2023-06-22T05:20:11;97213.25;;;19.91;100.00
25130;BME280;13308;50.860;13.664;2023-06-22T05:22:37;97210.16;;;19.89;100.00
25130;BME280;13308;50.860;13.664;2023-06-22T05:25:02;97211.09;;;19.95;100.00
25130;BME280;13308;50.860;13.664;2023-06-22T05:27:28;97207.00;;;20.05;100.00
25130;BME280;13308;50.860;13.664;2023-06-22T05:29:53;97194.81;;;20.26;100.00
25130;BME280;13308;50.860;13.664;2023-06-22T05:32:18;97197.63;;;20.58;100.00
25130;BME280;13308;50.860;13.664;2023-06-22T05:34:44;97188.81;;;20.74;100.00
25130;BME280;13308;50.860;13.664;2023-06-22T05:37:09;97187.97;;;20.92;100.00
25130;BME280;13308;50.860;13.664;2023-06-22T05:39:35;97192.50;;;21.13;100.00
25130;BME280;13308;50.860;13.664;2023-06-22T05:42:04;97184.38;;;21.15;100.00
25130;BME280;13308;50.860;13.664;2023-06-22T05:44:30;97180.91;;;21.20;100.00
25130;BME280;13308;50.860;13.664;2023-06-22T05:46:55;97188.75;;;21.30;100.00
25130;BME280;13308;50.860;13.664;2023-06-22T05:49:20;97188.31;;;21.46;100.00
25130;BME280;13308;50.860;13.664;2023-06-22T05:51:47;97192.69;;;21.62;100.00
25130;BME280;13308;50.860;13.664;2023-06-22T05:54:13;97190.34;;;21.84;100.00
25130;BME280;13308;50.860;13.664;2023-06-22T05:56:40;97191.88;;;21.99;100.00
25130;BME280;13308;50.860;13.664;2023-06-22T05:59:06;97187.41;;;22.22;100.00
25130;BME280;13308;50.860;13.664;2023-06-22T06:01:31;97180.28;;;22.41;100.00
25130;BME280;13308;50.860;13.664;2023-06-22T06:04:01;97177.53;;;22.61;100.00
25130;BME280;13308;50.860;13.664;2023-06-22T06:06:26;97175.19;;;22.74;100.00
25130;BME280;13308;50.860;13.664;2023-06-22T06:08:54;97175.63;;;22.87;100.00
25130;BME280;13308;50.860;13.664;2023-06-22T06:11:19;97170.69;;;23.02;100.00
25130;BME280;13308;50.860;13.664;2023-06-22T06:13:44;97168.63;;;23.17;100.00
25130;BME280;13308;50.860;13.664;2023-06-22T06:16:10;97164.94;;;23.31;100.00
25130;BME280;13308;50.860;13.664;2023-06-22T06:18:35;97173.41;;;23.51;100.00
25130;BME280;13308;50.860;13.664;2023-06-22T06:21:02;97168.97;;;23.70;99.01
25130;BME280;13308;50.860;13.664;2023-06-22T06:23:28;97151.06;;;23.93;98.61
25130;BME280;13308;50.860;13.664;2023-06-22T06:25:53;97129.94;;;24.14;95.59
25130;BME280;13308;50.860;13.664;2023-06-22T06:28:18;97110.53;;;24.21;93.01
25130;BME280;13308;50.860;13.664;2023-06-22T06:30:44;97067.22;;;24.61;88.65
25130;BME280;13308;50.860;13.664;2023-06-22T06:33:09;97046.78;;;24.77;88.38
25130;BME280;13308;50.860;13.664;2023-06-22T06:35:35;97061.09;;;25.32;78.05
25130;BME280;13308;50.860;13.664;2023-06-22T06:38:00;97080.59;;;25.41;76.98
25130;BME280;13308;50.860;13.664;2023-06-22T06:40:26;97073.63;;;25.25;79.78
25130;BME280;13308;50.860;13.664;2023-06-22T06:42:51;97067.75;;;25.40;78.56
25130;BME280;13308;50.860;13.664;2023-06-22T06:45:21;97078.34;;;25.78;79.47
25130;BME280;13308;50.860;13.664;2023-06-22T06:47:48;97089.66;;;26.33;72.60
25130;BME280;13308;50.860;13.664;2023-06-22T06:50:14;97089.81;;;26.84;73.91
25130;BME280;13308;50.860;13.664;2023-06-22T06:52:39;97092.81;;;27.08;70.10
25130;BME280;13308;50.860;13.664;2023-06-22T06:55:06;97095.75;;;27.43;71.09
25130;BME280;13308;50.860;13.664;2023-06-22T06:57:40;97097.59;;;28.46;64.81
25130;BME280;13308;50.860;13.664;2023-06-22T07:00:08;97103.50;;;28.48;65.32
25130;BME280;13308;50.860;13.664;2023-06-22T07:02:38;97092.97;;;28.91;68.67
25130;BME280;13308;50.860;13.664;2023-06-22T07:05:05;97096.94;;;29.67;64.13
25130;BME280;13308;50.860;13.664;2023-06-22T07:07:30;97096.03;;;30.09;60.95
25130;BME280;13308;50.860;13.664;2023-06-22T07:09:56;97102.13;;;30.76;62.38
25130;BME280;13308;50.860;13.664;2023-06-22T07:12:21;97097.56;;;30.55;61.34
25130;BME280;13308;50.860;13.664;2023-06-22T07:14:46;97106.13;;;30.55;58.64
25130;BME280;13308;50.860;13.664;2023-06-22T07:17:12;97107.16;;;30.26;60.99
25130;BME280;13308;50.860;13.664;2023-06-22T07:19:37;97104.47;;;29.65;64.36
25130;BME280;13308;50.860;13.664;2023-06-22T07:22:02;97117.56;;;29.31;64.44
25130;BME280;13308;50.860;13.664;2023-06-22T07:24:28;97119.38;;;29.10;64.92
25130;BME280;13308;50.860;13.664;2023-06-22T07:26:53;97108.25;;;28.64;58.90
25130;BME280;13308;50.860;13.664;2023-06-22T07:29:20;97112.63;;;28.65;62.19
25130;BME280;13308;50.860;13.664;2023-06-22T07:31:47;97113.91;;;29.54;57.84
25130;BME280;13308;50.860;13.664;2023-06-22T07:34:12;97112.94;;;30.02;56.79
25130;BME280;13308;50.860;13.664;2023-06-22T07:36:38;97107.94;;;30.84;51.07
25130;BME280;13308;50.860;13.664;2023-06-22T07:39:03;97113.44;;;31.08;53.26
25130;BME280;13308;50.860;13.664;2023-06-22T07:41:29;97108.38;;;31.40;51.42
25130;BME280;13308;50.860;13.664;2023-06-22T07:43:54;97103.69;;;31.76;52.81
25130;BME280;13308;50.860;13.664;2023-06-22T07:46:20;97111.53;;;32.16;51.12
25130;BME280;13308;50.860;13.664;2023-06-22T07:48:45;97120.16;;;32.03;50.50
25130;BME280;13308;50.860;13.664;2023-06-22T07:51:10;97122.88;;;32.42;49.62
25130;BME280;13308;50.860;13.664;2023-06-22T07:53:41;97121.28;;;32.34;50.44
25130;BME280;13308;50.860;13.664;2023-06-22T07:56:06;97110.97;;;31.97;52.14
25130;BME280;13308;50.860;13.664;2023-06-22T07:58:32;97123.06;;;32.65;51.52
25130;BME280;13308;50.860;13.664;2023-06-22T08:00:58;97136.16;;;33.65;46.26
25130;BME280;13308;50.860;13.664;2023-06-22T08:03:24;97123.59;;;33.75;46.44
25130;BME280;13308;50.860;13.664;2023-06-22T08:05:49;97129.94;;;33.81;47.36
25130;BME280;13308;50.860;13.664;2023-06-22T08:08:15;97125.03;;;34.04;46.20
25130;BME280;13308;50.860;13.664;2023-06-22T08:10:40;97125.97;;;33.21;46.79
25130;BME280;13308;50.860;13.664;2023-06-22T08:13:06;97131.72;;;33.56;46.92
25130;BME280;13308;50.860;13.664;2023-06-22T08:15:31;97117.88;;;32.56;50.40
25130;BME280;13308;50.860;13.664;2023-06-22T08:17:57;97124.44;;;33.20;46.87
25130;BME280;13308;50.860;13.664;2023-06-22T08:20:23;97129.19;;;33.45;45.78
25130;BME280;13308;50.860;13.664;2023-06-22T08:22:48;97132.06;;;32.89;48.46
25130;BME280;13308;50.860;13.664;2023-06-22T08:25:13;97113.88;;;32.79;49.40
25130;BME280;13308;50.860;13.664;2023-06-22T08:27:39;97107.38;;;32.79;49.15
25130;BME280;13308;50.860;13.664;2023-06-22T08:30:06;97114.94;;;33.25;47.10
25130;BME280;13308;50.860;13.664;2023-06-22T08:32:32;97118.03;;;32.99;48.15
25130;BME280;13308;50.860;13.664;2023-06-22T08:34:58;97111.09;;;32.87;47.56
25130;BME280;13308;50.860;13.664;2023-06-22T08:37:24;97112.19;;;32.84;46.42
25130;BME280;13308;50.860;13.664;2023-06-22T08:39:55;97113.72;;;33.13;47.55
25130;BME280;13308;50.860;13.664;2023-06-22T08:42:20;97103.38;;;32.00;51.17
25130;BME280;13308;50.860;13.664;2023-06-22T08:44:46;97092.50;;;31.78;51.41
25130;BME280;13308;50.860;13.664;2023-06-22T08:47:11;97100.66;;;32.28;51.11
25130;BME280;13308;50.860;13.664;2023-06-22T08:49:36;97113.59;;;32.70;48.73
25130;BME280;13308;50.860;13.664;2023-06-22T08:52:02;97105.09;;;32.57;49.48
25130;BME280;13308;50.860;13.664;2023-06-22T08:54:27;97113.16;;;32.66;50.15
25130;BME280;13308;50.860;13.664;2023-06-22T08:56:52;97098.53;;;32.08;51.04
25130;BME280;13308;50.860;13.664;2023-06-22T08:59:18;97110.06;;;33.05;50.40
25130;BME280;13308;50.860;13.664;2023-06-22T09:01:43;97103.72;;;32.99;50.32
25130;BME280;13308;50.860;13.664;2023-06-22T09:04:11;97100.34;;;31.98;50.55
25130;BME280;13308;50.860;13.664;2023-06-22T09:06:37;97096.25;;;32.06;52.75
25130;BME280;13308;50.860;13.664;2023-06-22T09:09:06;97101.25;;;32.75;50.90
25130;BME280;13308;50.860;13.664;2023-06-22T09:11:31;97096.59;;;32.23;49.30
25130;BME280;13308;50.860;13.664;2023-06-22T09:13:57;97100.22;;;32.65;48.78
25130;BME280;13308;50.860;13.664;2023-06-22T09:16:22;97099.13;;;32.96;51.88
25130;BME280;13308;50.860;13.664;2023-06-22T09:18:48;97101.00;;;33.21;48.16
25130;BME280;13308;50.860;13.664;2023-06-22T09:21:13;97090.09;;;32.64;49.19
25130;BME280;13308;50.860;13.664;2023-06-22T09:23:38;97089.56;;;32.65;47.57
25130;BME280;13308;50.860;13.664;2023-06-22T09:26:04;97077.28;;;32.57;49.42
25130;BME280;13308;50.860;13.664;2023-06-22T09:28:29;97089.31;;;32.84;50.34
25130;BME280;13308;50.860;13.664;2023-06-22T09:30:54;97077.34;;;32.65;50.74
25130;BME280;13308;50.860;13.664;2023-06-22T09:33:23;97075.41;;;32.19;51.01
25130;BME280;13308;50.860;13.664;2023-06-22T09:35:49;97077.53;;;32.39;50.28
25130;BME280;13308;50.860;13.664;2023-06-22T09:38:16;97074.19;;;31.73;50.27
25130;BME280;13308;50.860;13.664;2023-06-22T09:40:41;97068.03;;;31.10;51.14
25130;BME280;13308;50.860;13.664;2023-06-22T09:43:06;97062.50;;;30.47;53.63
25130;BME280;13308;50.860;13.664;2023-06-22T09:45:32;97061.91;;;30.93;54.24
25130;BME280;13308;50.860;13.664;2023-06-22T09:47:57;97056.84;;;31.25;52.38
25130;BME280;13308;50.860;13.664;2023-06-22T09:50:22;97065.63;;;31.27;55.26
25130;BME280;13308;50.860;13.664;2023-06-22T09:52:47;97061.53;;;31.82;54.77
25130;BME280;13308;50.860;13.664;2023-06-22T09:55:15;97070.31;;;32.45;49.12
25130;BME280;13308;50.860;13.664;2023-06-22T09:57:41;97077.88;;;32.35;50.26
25130;BME280;13308;50.860;13.664;2023-06-22T10:00:07;97066.56;;;32.50;51.65
25130;BME280;13308;50.860;13.664;2023-06-22T10:02:34;97068.91;;;32.80;50.79
25130;BME280;13308;50.860;13.664;2023-06-22T10:04:59;97069.00;;;32.95;52.21
25130;BME280;13308;50.860;13.664;2023-06-22T10:07:25;97058.38;;;32.75;52.43
25130;BME280;13308;50.860;13.664;2023-06-22T10:09:50;97063.56;;;33.12;52.05
25130;BME280;13308;50.860;13.664;2023-06-22T10:12:15;97066.56;;;32.99;49.22
25130;BME280;13308;50.860;13.664;2023-06-22T10:14:41;97058.66;;;32.64;50.97
25130;BME280;13308;50.860;13.664;2023-06-22T10:17:06;97060.41;;;32.95;48.72
25130;BME280;13308;50.860;13.664;2023-06-22T10:19:32;97045.94;;;32.03;50.40
25130;BME280;13308;50.860;13.664;2023-06-22T10:21:57;97055.81;;;32.64;51.41
25130;BME280;13308;50.860;13.664;2023-06-22T10:24:23;97056.63;;;32.23;52.34
25130;BME280;13308;50.860;13.664;2023-06-22T10:26:48;97049.47;;;31.76;53.51
25130;BME280;13308;50.860;13.664;2023-06-22T10:29:13;97042.69;;;32.20;53.19
25130;BME280;13308;50.860;13.664;2023-06-22T10:31:39;97036.00;;;32.66;52.63
25130;BME280;13308;50.860;13.664;2023-06-22T10:34:04;97039.97;;;33.19;51.07
25130;BME280;13308;50.860;13.664;2023-06-22T10:36:29;97033.31;;;33.24;49.39
25130;BME280;13308;50.860;13.664;2023-06-22T10:38:55;97025.91;;;33.28;49.17
25130;BME280;13308;50.860;13.664;2023-06-22T10:41:21;97034.97;;;33.55;48.08
25130;BME280;13308;50.860;13.664;2023-06-22T10:43:46;97038.47;;;32.62;50.28
25130;BME280;13308;50.860;13.664;2023-06-22T10:46:12;97031.41;;;31.94;49.59
25130;BME280;13308;50.860;13.664;2023-06-22T10:48:37;97027.78;;;31.60;50.16
25130;BME280;13308;50.860;13.664;2023-06-22T10:51:02;97041.28;;;32.54;49.25
25130;BME280;13308;50.860;13.664;2023-06-22T10:53:28;97030.78;;;32.77;49.03
25130;BME280;13308;50.860;13.664;2023-06-22T10:55:53;97032.41;;;32.65;47.59
25130;BME280;13308;50.860;13.664;2023-06-22T10:58:19;97027.53;;;32.53;48.28
25130;BME280;13308;50.860;13.664;2023-06-22T11:00:45;97025.81;;;32.50;49.90
25130;BME280;13308;50.860;13.664;2023-06-22T11:03:10;97030.13;;;32.92;49.62
25130;BME280;13308;50.860;13.664;2023-06-22T11:05:35;97032.34;;;32.58;50.56
25130;BME280;13308;50.860;13.664;2023-06-22T11:08:04;97036.31;;;32.27;48.21
25130;BME280;13308;50.860;13.664;2023-06-22T11:10:34;97022.28;;;32.16;51.43
25130;BME280;13308;50.860;13.664;2023-06-22T11:12:59;97018.91;;;32.45;49.39
25130;BME280;13308;50.860;13.664;2023-06-22T11:15:25;97015.09;;;32.71;48.99
25130;BME280;13308;50.860;13.664;2023-06-22T11:17:50;97013.56;;;32.42;47.81
25130;BME280;13308;50.860;13.664;2023-06-22T11:20:15;97006.81;;;32.60;48.16
25130;BME280;13308;50.860;13.664;2023-06-22T11:22:41;97008.75;;;32.65;48.01
25130;BME280;13308;50.860;13.664;2023-06-22T11:25:07;97005.00;;;33.41;49.59
25130;BME280;13308;50.860;13.664;2023-06-22T11:27:32;97002.69;;;34.27;48.66
25130;BME280;13308;50.860;13.664;2023-06-22T11:29:58;97008.56;;;34.52;44.34
25130;BME280;13308;50.860;13.664;2023-06-22T11:32:23;97008.97;;;34.56;45.66
25130;BME280;13308;50.860;13.664;2023-06-22T11:34:49;97004.41;;;34.38;47.24
25130;BME280;13308;50.860;13.664;2023-06-22T11:37:14;97000.75;;;33.27;46.89
25130;BME280;13308;50.860;13.664;2023-06-22T11:39:40;96995.91;;;32.51;46.62
25130;BME280;13308;50.860;13.664;2023-06-22T11:42:06;96989.00;;;31.77;48.70
25130;BME280;13308;50.860;13.664;2023-06-22T11:44:31;96984.94;;;30.93;51.53
25130;BME280;13308;50.860;13.664;2023-06-22T11:46:56;96974.88;;;30.92;51.47
25130;BME280;13308;50.860;13.664;2023-06-22T11:49:22;96984.97;;;31.39;52.48
25130;BME280;13308;50.860;13.664;2023-06-22T11:51:47;96971.22;;;31.51;53.83
25130;BME280;13308;50.860;13.664;2023-06-22T11:54:12;96988.03;;;31.75;50.48
25130;BME280;13308;50.860;13.664;2023-06-22T11:56:37;96968.34;;;31.51;53.12
25130;BME280;13308;50.860;13.664;2023-06-22T11:59:03;96974.44;;;31.68;50.94
25130;BME280;13308;50.860;13.664;2023-06-22T12:01:28;96964.06;;;31.24;51.16
25130;BME280;13308;50.860;13.664;2023-06-22T12:03:53;96957.38;;;31.21;52.42
25130;BME280;13308;50.860;13.664;2023-06-22T12:06:19;96948.13;;;30.95;53.06
25130;BME280;13308;50.860;13.664;2023-06-22T12:08:44;96941.00;;;31.35;53.64
25130;BME280;13308;50.860;13.664;2023-06-22T12:11:09;96949.78;;;31.37;52.08
25130;BME280;13308;50.860;13.664;2023-06-22T12:13:35;96954.88;;;31.92;49.85
25130;BME280;13308;50.860;13.664;2023-06-22T12:16:00;96953.66;;;32.29;51.03
25130;BME280;13308;50.860;13.664;2023-06-22T12:18:25;96954.81;;;31.85;49.20
25130;BME280;13308;50.860;13.664;2023-06-22T12:20:51;96941.69;;;31.28;50.46
25130;BME280;13308;50.860;13.664;2023-06-22T12:23:16;96951.16;;;31.64;49.37
25130;BME280;13308;50.860;13.664;2023-06-22T12:25:41;96943.50;;;31.59;49.60
25130;BME280;13308;50.860;13.664;2023-06-22T12:28:07;96947.25;;;31.54;48.65
25130;BME280;13308;50.860;13.664;2023-06-22T12:30:33;96935.91;;;31.20;50.29
25130;BME280;13308;50.860;13.664;2023-06-22T12:32:58;96936.31;;;31.24;48.85
25130;BME280;13308;50.860;13.664;2023-06-22T12:35:24;96929.97;;;31.72;49.65
25130;BME280;13308;50.860;13.664;2023-06-22T12:37:49;96931.38;;;31.79;50.93
25130;BME280;13308;50.860;13.664;2023-06-22T12:40:14;96910.00;;;31.72;52.79
25130;BME280;13308;50.860;13.664;2023-06-22T12:42:40;96922.63;;;32.61;48.82
25130;BME280;13308;50.860;13.664;2023-06-22T12:45:05;96922.59;;;33.39;47.17
25130;BME280;13308;50.860;13.664;2023-06-22T12:47:31;96924.56;;;34.04;45.27
25130;BME280;13308;50.860;13.664;2023-06-22T12:49:56;96919.56;;;33.60;48.20
25130;BME280;13308;50.860;13.664;2023-06-22T12:52:22;96918.72;;;33.22;47.94
25130;BME280;13308;50.860;13.664;2023-06-22T12:54:47;96918.66;;;34.02;47.94
25130;BME280;13308;50.860;13.664;2023-06-22T12:57:13;96915.41;;;33.91;47.94
25130;BME280;13308;50.860;13.664;2023-06-22T12:59:38;96907.94;;;33.73;47.67
25130;BME280;13308;50.860;13.664;2023-06-22T13:02:04;96915.22;;;33.89;46.23
25130;BME280;13308;50.860;13.664;2023-06-22T13:04:29;96905.84;;;34.11;47.23
25130;BME280;13308;50.860;13.664;2023-06-22T13:06:54;96913.06;;;34.49;47.49
25130;BME280;13308;50.860;13.664;2023-06-22T13:09:20;96910.63;;;34.31;47.05
25130;BME280;13308;50.860;13.664;2023-06-22T13:11:45;96911.34;;;33.49;47.23
25130;BME280;13308;50.860;13.664;2023-06-22T13:14:11;96906.56;;;33.44;46.08
25130;BME280;13308;50.860;13.664;2023-06-22T13:16:36;96905.06;;;33.58;47.65
25130;BME280;13308;50.860;13.664;2023-06-22T13:19:01;96906.38;;;33.42;47.74
25130;BME280;13308;50.860;13.664;2023-06-22T13:21:27;96909.44;;;32.86;49.82
25130;BME280;13308;50.860;13.664;2023-06-22T13:23:52;96902.53;;;32.81;48.08
25130;BME280;13308;50.860;13.664;2023-06-22T13:26:17;96900.47;;;33.47;46.31
25130;BME280;13308;50.860;13.664;2023-06-22T13:28:43;96903.31;;;34.45;47.21
25130;BME280;13308;50.860;13.664;2023-06-22T13:31:08;96897.13;;;35.17;44.92
25130;BME280;13308;50.860;13.664;2023-06-22T13:33:33;96909.75;;;36.27;41.68
25130;BME280;13308;50.860;13.664;2023-06-22T13:35:59;96897.75;;;35.40;45.67
25130;BME280;13308;50.860;13.664;2023-06-22T13:38:24;96879.28;;;35.34;44.03
25130;BME280;13308;50.860;13.664;2023-06-22T13:40:49;96877.81;;;34.79;44.29
25130;BME280;13308;50.860;13.664;2023-06-22T13:43:15;96867.47;;;35.22;42.04
25130;BME280;13308;50.860;13.664;2023-06-22T13:45:41;96856.19;;;34.31;44.87
25130;BME280;13308;50.860;13.664;2023-06-22T13:48:07;96853.50;;;35.19;43.43
25130;BME280;13308;50.860;13.664;2023-06-22T13:50:33;96853.72;;;35.45;43.43
25130;BME280;13308;50.860;13.664;2023-06-22T13:52:58;96865.13;;;35.28;42.84
25130;BME280;13308;50.860;13.664;2023-06-22T13:55:23;96868.47;;;35.74;43.19
25130;BME280;13308;50.860;13.664;2023-06-22T13:57:49;96876.59;;;36.94;42.84
25130;BME280;13308;50.860;13.664;2023-06-22T14:00:15;96863.97;;;36.63;43.15
25130;BME280;13308;50.860;13.664;2023-06-22T14:02:41;96865.81;;;36.51;43.75
25130;BME280;13308;50.860;13.664;2023-06-22T14:05:07;96858.88;;;36.37;40.89
25130;BME280;13308;50.860;13.664;2023-06-22T14:07:33;96857.00;;;36.32;42.63
25130;BME280;13308;50.860;13.664;2023-06-22T14:09:59;96850.41;;;36.90;41.59
25130;BME280;13308;50.860;13.664;2023-06-22T14:12:25;96862.09;;;37.45;41.57
25130;BME280;13308;50.860;13.664;2023-06-22T14:14:50;96835.63;;;36.77;41.55
25130;BME280;13308;50.860;13.664;2023-06-22T14:17:15;96841.28;;;36.84;41.88
25130;BME280;13308;50.860;13.664;2023-06-22T14:19:40;96839.88;;;37.02;40.89
25130;BME280;13308;50.860;13.664;2023-06-22T14:22:06;96840.41;;;37.44;39.70
25130;BME280;13308;50.860;13.664;2023-06-22T14:24:31;96851.50;;;38.58;37.23
25130;BME280;13308;50.860;13.664;2023-06-22T14:26:56;96836.50;;;37.85;38.17
25130;BME280;13308;50.860;13.664;2023-06-22T14:29:22;96830.97;;;37.61;39.02
25130;BME280;13308;50.860;13.664;2023-06-22T14:31:48;96828.53;;;37.57;38.77
25130;BME280;13308;50.860;13.664;2023-06-22T14:34:13;96825.75;;;37.95;38.50
25130;BME280;13308;50.860;13.664;2023-06-22T14:36:39;96833.88;;;37.70;37.39
25130;BME280;13308;50.860;13.664;2023-06-22T14:39:04;96815.88;;;37.43;39.07
25130;BME280;13308;50.860;13.664;2023-06-22T14:41:30;96821.47;;;38.61;38.39
25130;BME280;13308;50.860;13.664;2023-06-22T14:43:56;96817.78;;;38.32;36.88
25130;BME280;13308;50.860;13.664;2023-06-22T14:46:22;96803.06;;;38.18;36.76
25130;BME280;13308;50.860;13.664;2023-06-22T14:48:47;96797.94;;;36.82;40.09
25130;BME280;13308;50.860;13.664;2023-06-22T14:51:13;96793.91;;;36.51;40.07
25130;BME280;13308;50.860;13.664;2023-06-22T14:53:38;96781.91;;;36.45;41.17
25130;BME280;13308;50.860;13.664;2023-06-22T14:56:04;96787.53;;;36.26;40.90
25130;BME280;13308;50.860;13.664;2023-06-22T14:58:33;96783.09;;;35.26;42.62
25130;BME280;13308;50.860;13.664;2023-06-22T15:01:02;96789.22;;;35.22;42.96
25130;BME280;13308;50.860;13.664;2023-06-22T15:03:29;96773.66;;;34.68;42.09
25130;BME280;13308;50.860;13.664;2023-06-22T15:05:56;96774.69;;;34.56;43.49
25130;BME280;13308;50.860;13.664;2023-06-22T15:08:21;96762.03;;;34.98;44.38
25130;BME280;13308;50.860;13.664;2023-06-22T15:10:47;96773.44;;;35.06;43.73
25130;BME280;13308;50.860;13.664;2023-06-22T15:13:12;96769.72;;;35.20;42.13
25130;BME280;13308;50.860;13.664;2023-06-22T15:15:37;96764.50;;;34.31;43.88
25130;BME280;13308;50.860;13.664;2023-06-22T15:18:03;96743.16;;;34.17;45.50
25130;BME280;13308;50.860;13.664;2023-06-22T15:20:28;96747.09;;;34.76;41.50
25130;BME280;13308;50.860;13.664;2023-06-22T15:22:54;96747.88;;;35.01;41.41
25130;BME280;13308;50.860;13.664;2023-06-22T15:25:19;96746.16;;;34.97;43.44
25130;BME280;13308;50.860;13.664;2023-06-22T15:27:45;96729.41;;;34.55;42.59
25130;BME280;13308;50.860;13.664;2023-06-22T15:30:10;96752.22;;;35.09;43.88
25130;BME280;13308;50.860;13.664;2023-06-22T15:32:36;96747.28;;;34.78;44.48
25130;BME280;13308;50.860;13.664;2023-06-22T15:35:01;96737.00;;;34.99;43.78
25130;BME280;13308;50.860;13.664;2023-06-22T15:37:26;96733.31;;;34.82;43.00
25130;BME280;13308;50.860;13.664;2023-06-22T15:39:52;96727.59;;;34.74;44.21
25130;BME280;13308;50.860;13.664;2023-06-22T15:42:17;96704.78;;;34.52;44.89
25130;BME280;13308;50.860;13.664;2023-06-22T15:44:42;96714.31;;;34.54;43.66
25130;BME280;13308;50.860;13.664;2023-06-22T15:47:08;96701.19;;;34.44;43.59
25130;BME280;13308;50.860;13.664;2023-06-22T15:49:33;96701.66;;;34.65;44.46
25130;BME280;13308;50.860;13.664;2023-06-22T15:51:58;96706.72;;;34.49;44.40
25130;BME280;13308;50.860;13.664;2023-06-22T15:54:23;96712.28;;;34.40;43.42
25130;BME280;13308;50.860;13.664;2023-06-22T15:56:49;96692.00;;;34.06;44.87
25130;BME280;13308;50.860;13.664;2023-06-22T15:59:14;96677.66;;;34.13;43.73
25130;BME280;13308;50.860;13.664;2023-06-22T16:01:39;96681.78;;;34.35;43.83
25130;BME280;13308;50.860;13.664;2023-06-22T16:04:05;96680.28;;;33.79;45.58
25130;BME280;13308;50.860;13.664;2023-06-22T16:06:30;96691.03;;;33.41;45.75
25130;BME280;13308;50.860;13.664;2023-06-22T16:08:55;96681.53;;;33.31;47.58
25130;BME280;13308;50.860;13.664;2023-06-22T16:11:21;96677.31;;;33.32;46.77
25130;BME280;13308;50.860;13.664;2023-06-22T16:13:47;96678.47;;;32.84;46.23
25130;BME280;13308;50.860;13.664;2023-06-22T16:16:12;96676.81;;;32.23;48.60
25130;BME280;13308;50.860;13.664;2023-06-22T16:18:37;96670.03;;;31.98;48.22
25130;BME280;13308;50.860;13.664;2023-06-22T16:21:05;96665.84;;;31.92;48.53
25130;BME280;13308;50.860;13.664;2023-06-22T16:23:31;96659.13;;;31.82;49.89
25130;BME280;13308;50.860;13.664;2023-06-22T16:25:56;96652.66;;;31.74;49.60
25130;BME280;13308;50.860;13.664;2023-06-22T16:28:21;96654.28;;;32.05;49.73
25130;BME280;13308;50.860;13.664;2023-06-22T16:30:47;96668.41;;;32.18;49.52
25130;BME280;13308;50.860;13.664;2023-06-22T16:33:13;96674.19;;;32.40;49.86
25130;BME280;13308;50.860;13.664;2023-06-22T16:35:38;96681.81;;;32.45;47.09
25130;BME280;13308;50.860;13.664;2023-06-22T16:38:06;96676.47;;;32.42;49.10
25130;BME280;13308;50.860;13.664;2023-06-22T16:40:31;96677.53;;;32.09;47.81
25130;BME280;13308;50.860;13.664;2023-06-22T16:42:56;96661.13;;;32.09;49.24
25130;BME280;13308;50.860;13.664;2023-06-22T16:45:22;96670.13;;;32.21;49.19
25130;BME280;13308;50.860;13.664;2023-06-22T16:47:48;96660.09;;;32.35;47.29
25130;BME280;13308;50.860;13.664;2023-06-22T16:50:15;96650.16;;;32.28;47.75
25130;BME280;13308;50.860;13.664;2023-06-22T16:52:41;96652.31;;;32.35;47.40
25130;BME280;13308;50.860;13.664;2023-06-22T16:55:10;96649.94;;;32.19;47.79
25130;BME280;13308;50.860;13.664;2023-06-22T16:57:35;96636.59;;;31.71;48.42
25130;BME280;13308;50.860;13.664;2023-06-22T17:00:01;96637.53;;;31.66;49.13
25130;BME280;13308;50.860;13.664;2023-06-22T17:02:27;96633.31;;;31.87;48.17
25130;BME280;13308;50.860;13.664;2023-06-22T17:04:54;96612.59;;;31.59;50.01
25130;BME280;13308;50.860;13.664;2023-06-22T17:07:22;96609.16;;;31.53;51.43
25130;BME280;13308;50.860;13.664;2023-06-22T17:09:49;96611.81;;;31.51;49.96
25130;BME280;13308;50.860;13.664;2023-06-22T17:12:15;96600.34;;;31.08;50.99
25130;BME280;13308;50.860;13.664;2023-06-22T17:14:41;96599.19;;;31.11;51.69
25130;BME280;13308;50.860;13.664;2023-06-22T17:17:09;96595.72;;;31.25;51.63
25130;BME280;13308;50.860;13.664;2023-06-22T17:19:35;96586.22;;;31.30;52.11
25130;BME280;13308;50.860;13.664;2023-06-22T17:22:01;96581.34;;;31.46;50.00
25130;BME280;13308;50.860;13.664;2023-06-22T17:24:26;96586.28;;;31.38;50.36
25130;BME280;13308;50.860;13.664;2023-06-22T17:26:53;96576.34;;;31.31;51.29
25130;BME280;13308;50.860;13.664;2023-06-22T17:29:19;96573.88;;;31.00;50.64
25130;BME280;13308;50.860;13.664;2023-06-22T17:31:44;96570.75;;;30.83;52.86
25130;BME280;13308;50.860;13.664;2023-06-22T17:34:14;96566.81;;;30.93;51.86
25130;BME280;13308;50.860;13.664;2023-06-22T17:36:41;96566.69;;;30.71;51.75